Time;durP1;ratioP1;P1;durP2;ratioP2;P2;SDS_P1;SDS_P2;PMS_P1;PMS_P2;Temp;Humidity;BMP_temperature;BMP_pressure;BME280_temperature;BME280_humidity;BME280_pressure;Samples;Min_cycle;Max_cycle;Signal;HPM_P1;HPM_P2
2021/09/24 00:01:39;;;;;;;;;;;21.30;59.40;;;;;;491401;240;1160;-47
2021/09/24 00:03:40;;;;;;;;;;;21.30;59.50;;;;;;492008;240;1285;-46
2021/09/24 00:05:42;;;;;;;;;;;21.30;59.50;;;;;;491544;240;2181;-47
2021/09/24 00:07:43;;;;;;;;;;;21.30;59.50;;;;;;491530;240;1585;-46
2021/09/24 00:09:44;;;;;;;;;;;21.30;59.30;;;;;;491706;240;1056;-47
2021/09/24 00:11:46;;;;;;;;;;;21.30;59.30;;;;;;491558;240;1203;-47
2021/09/24 00:13:47;;;;;;;;;;;21.30;59.40;;;;;;492001;240;1109;-47
2021/09/24 00:15:48;;;;;;;;;;;21.30;59.40;;;;;;491593;240;1034;-47
2021/09/24 00:17:50;;;;;;;;;;;21.30;59.40;;;;;;491685;240;1168;-47
2021/09/24 00:19:51;;;;;;;;;;;21.30;59.40;;;;;;491596;240;1004;-47
2021/09/24 00:21:52;;;;;;;;;;;21.30;59.40;;;;;;491853;240;1584;-47
2021/09/24 00:23:54;;;;;;;;;;;21.30;59.40;;;;;;491725;240;1120;-47
2021/09/24 00:25:55;;;;;;;;;;;21.30;59.30;;;;;;491946;240;2113;-47
2021/09/24 00:27:58;;;;;;;;;;;21.30;59.30;;;;;;491684;240;1199;-47
2021/09/24 00:29:58;;;;;;;;;;;21.30;59.40;;;;;;491726;240;2043;-46
2021/09/24 00:31:59;;;;;;;;;;;21.30;59.40;;;;;;491526;240;1285;-46
2021/09/24 00:34:00;;;;;;;;;;;21.30;59.40;;;;;;491945;240;1100;-47
2021/09/24 00:36:02;;;;;;;;;;;21.30;59.40;;;;;;492004;240;1044;-47
2021/09/24 00:38:03;;;;;;;;;;;21.30;59.30;;;;;;491572;240;1232;-46
2021/09/24 00:40:05;;;;;;;;;;;21.30;59.40;;;;;;491939;240;1034;-47
2021/09/24 00:42:06;;;;;;;;;;;21.30;59.40;;;;;;491818;240;1051;-46
2021/09/24 00:44:07;;;;;;;;;;;21.30;59.40;;;;;;492096;240;1381;-47
2021/09/24 00:46:08;;;;;;;;;;;21.30;59.50;;;;;;491634;240;2175;-47
2021/09/24 00:48:10;;;;;;;;;;;21.30;59.50;;;;;;492062;240;1079;-46
2021/09/24 00:50:11;;;;;;;;;;;21.30;59.50;;;;;;492025;240;1079;-47
2021/09/24 00:52:12;;;;;;;;;;;21.20;59.40;;;;;;491589;240;1142;-47
2021/09/24 00:54:14;;;;;;;;;;;21.30;59.40;;;;;;491829;240;1282;-47
2021/09/24 00:56:15;;;;;;;;;;;21.30;59.50;;;;;;491932;240;1044;-46
2021/09/24 00:58:16;;;;;;;;;;;21.30;59.50;;;;;;492062;240;1219;-47
2021/09/24 01:00:18;;;;;;;;;;;21.30;59.40;;;;;;491718;240;1095;-47
2021/09/24 01:02:19;;;;;;;;;;;21.30;59.30;;;;;;491560;240;1008;-47
2021/09/24 01:04:20;;;;;;;;;;;21.30;59.40;;;;;;492063;240;1042;-47
2021/09/24 01:06:22;;;;;;;;;;;21.40;59.20;;;;;;491931;240;2105;-47
2021/09/24 01:08:23;;;;;;;;;;;21.50;58.70;;;;;;491997;240;1082;-47
2021/09/24 01:10:24;;;;;;;;;;;21.70;58.20;;;;;;491554;240;1067;-47
2021/09/24 01:12:26;;;;;;;;;;;21.90;57.80;;;;;;491799;240;1056;-47
2021/09/24 01:14:27;;;;;;;;;;;22.00;57.40;;;;;;491630;240;1054;-47
2021/09/24 01:16:28;;;;;;;;;;;22.10;57.10;;;;;;491554;240;1470;-47
2021/09/24 01:18:30;;;;;;;;;;;22.20;56.90;;;;;;491651;240;994;-47
2021/09/24 01:20:31;;;;;;;;;;;22.20;56.70;;;;;;491688;240;1103;-47
2021/09/24 01:22:32;;;;;;;;;;;22.30;56.60;;;;;;491813;240;1195;-47
2021/09/24 01:24:33;;;;;;;;;;;22.40;56.40;;;;;;491570;240;1211;-47
2021/09/24 01:26:35;;;;;;;;;;;22.40;56.30;;;;;;491638;240;2191;-47
2021/09/24 01:28:36;;;;;;;;;;;22.40;56.20;;;;;;491520;240;1051;-47
2021/09/24 01:30:37;;;;;;;;;;;22.50;56.10;;;;;;492002;240;1185;-47
2021/09/24 01:32:39;;;;;;;;;;;22.50;56.00;;;;;;491722;240;1182;-47
2021/09/24 01:34:40;;;;;;;;;;;22.50;55.90;;;;;;492098;240;1021;-47
2021/09/24 01:36:41;;;;;;;;;;;22.60;55.90;;;;;;491564;240;1426;-47
2021/09/24 01:38:43;;;;;;;;;;;22.60;55.80;;;;;;491601;240;1309;-47
2021/09/24 01:40:44;;;;;;;;;;;22.60;55.70;;;;;;491861;240;1248;-47
2021/09/24 01:42:45;;;;;;;;;;;22.60;55.60;;;;;;492018;240;1189;-47
2021/09/24 01:44:47;;;;;;;;;;;22.70;55.60;;;;;;491660;240;1048;-47
2021/09/24 01:46:48;;;;;;;;;;;22.70;55.50;;;;;;491974;240;2129;-47
2021/09/24 01:48:49;;;;;;;;;;;22.70;55.40;;;;;;491605;240;1026;-47
2021/09/24 01:50:51;;;;;;;;;;;22.80;55.50;;;;;;491787;240;1108;-47
2021/09/24 01:52:52;;;;;;;;;;;22.80;55.40;;;;;;491618;240;1076;-47
2021/09/24 01:54:54;;;;;;;;;;;22.80;55.30;;;;;;491633;240;1229;-46
2021/09/24 01:56:55;;;;;;;;;;;22.80;55.30;;;;;;492039;240;2272;-47
2021/09/24 01:58:56;;;;;;;;;;;22.80;55.20;;;;;;491619;240;1037;-47
2021/09/24 02:00:57;;;;;;;;;;;22.90;55.20;;;;;;491923;240;1050;-47
2021/09/24 02:02:59;;;;;;;;;;;22.90;55.20;;;;;;491570;242;2705;-47
2021/09/24 02:05:00;;;;;;;;;;;22.90;55.10;;;;;;491965;240;1121;-47
2021/09/24 02:07:01;;;;;;;;;;;22.90;55.00;;;;;;491752;240;2191;-47
2021/09/24 02:09:02;;;;;;;;;;;22.90;55.00;;;;;;491924;240;1127;-47
2021/09/24 02:11:05;;;;;;;;;;;23.00;55.00;;;;;;491513;240;1087;-47
2021/09/24 02:13:05;;;;;;;;;;;23.00;55.00;;;;;;491499;240;1790;-46
2021/09/24 02:15:06;;;;;;;;;;;23.00;55.00;;;;;;492041;240;1146;-47
2021/09/24 02:17:08;;;;;;;;;;;23.00;54.90;;;;;;491522;240;1042;-47
2021/09/24 02:19:09;;;;;;;;;;;23.00;54.90;;;;;;491865;240;1075;-46
2021/09/24 02:21:10;;;;;;;;;;;23.00;54.80;;;;;;491535;240;1060;-46
2021/09/24 02:23:12;;;;;;;;;;;23.00;54.80;;;;;;491546;240;1177;-46
2021/09/24 02:25:13;;;;;;;;;;;23.00;54.70;;;;;;491505;240;1245;-47
2021/09/24 02:27:14;;;;;;;;;;;23.00;54.70;;;;;;491557;240;2113;-46
2021/09/24 02:29:16;;;;;;;;;;;23.10;54.80;;;;;;491723;240;1129;-46
2021/09/24 02:31:17;;;;;;;;;;;23.10;54.70;;;;;;491564;240;1195;-46
2021/09/24 02:33:18;;;;;;;;;;;23.10;54.70;;;;;;491671;240;1306;-47
2021/09/24 02:35:20;;;;;;;;;;;23.10;54.70;;;;;;491513;240;1040;-46
2021/09/24 02:37:21;;;;;;;;;;;23.10;54.70;;;;;;491524;240;1058;-46
2021/09/24 02:39:22;;;;;;;;;;;23.10;54.70;;;;;;491559;240;1378;-46
2021/09/24 02:41:24;;;;;;;;;;;23.10;54.60;;;;;;491766;240;1302;-46
2021/09/24 02:43:25;;;;;;;;;;;23.10;54.50;;;;;;491621;240;1088;-46
2021/09/24 02:45:26;;;;;;;;;;;23.20;54.60;;;;;;491998;240;1186;-46
2021/09/24 02:47:27;;;;;;;;;;;23.20;54.60;;;;;;491573;240;2192;-46
2021/09/24 02:49:29;;;;;;;;;;;23.20;54.60;;;;;;491554;240;1047;-46
2021/09/24 02:51:31;;;;;;;;;;;23.20;54.60;;;;;;491721;240;1104;-46
2021/09/24 02:53:34;;;;;;;;;;;23.20;54.60;;;;;;491667;240;1150;-47
2021/09/24 02:55:35;;;;;;;;;;;23.20;54.60;;;;;;491809;240;1247;-46
2021/09/24 02:57:37;;;;;;;;;;;23.20;54.60;;;;;;491570;240;1268;-46
2021/09/24 02:59:38;;;;;;;;;;;23.20;54.60;;;;;;491627;240;1098;-46
2021/09/24 03:01:39;;;;;;;;;;;23.20;54.60;;;;;;491525;240;1281;-46
2021/09/24 03:03:41;;;;;;;;;;;23.20;54.50;;;;;;491710;240;1089;-46
2021/09/24 03:05:42;;;;;;;;;;;23.20;54.50;;;;;;491816;240;1254;-46
2021/09/24 03:07:43;;;;;;;;;;;23.20;54.50;;;;;;491455;240;2118;-46
2021/09/24 03:09:45;;;;;;;;;;;23.30;54.50;;;;;;491539;240;1182;-46
2021/09/24 03:11:46;;;;;;;;;;;23.20;54.40;;;;;;491653;240;1200;-46
2021/09/24 03:13:47;;;;;;;;;;;23.30;54.40;;;;;;491502;240;1079;-46
2021/09/24 03:15:49;;;;;;;;;;;23.30;54.40;;;;;;491497;240;1050;-46
2021/09/24 03:17:50;;;;;;;;;;;23.30;54.40;;;;;;491433;240;1208;-46
2021/09/24 03:19:51;;;;;;;;;;;23.30;54.40;;;;;;491589;240;1035;-46
2021/09/24 03:21:52;;;;;;;;;;;23.30;54.40;;;;;;491501;240;1122;-46
2021/09/24 03:23:54;;;;;;;;;;;23.30;54.40;;;;;;491551;240;1054;-46
2021/09/24 03:25:55;;;;;;;;;;;23.30;54.40;;;;;;491724;240;1294;-46
2021/09/24 03:27:56;;;;;;;;;;;23.30;54.40;;;;;;491513;240;2203;-47
2021/09/24 03:29:58;;;;;;;;;;;23.30;54.40;;;;;;491985;240;1061;-47
2021/09/24 03:31:59;;;;;;;;;;;23.30;54.30;;;;;;491490;240;1158;-46
2021/09/24 03:34:00;;;;;;;;;;;23.30;54.30;;;;;;491837;240;1179;-46
2021/09/24 03:36:02;;;;;;;;;;;23.40;54.30;;;;;;491586;240;1208;-46
2021/09/24 03:38:03;;;;;;;;;;;23.40;54.30;;;;;;491658;240;1355;-46
2021/09/24 03:40:04;;;;;;;;;;;23.40;54.30;;;;;;491560;240;1073;-47
2021/09/24 03:42:06;;;;;;;;;;;23.30;54.20;;;;;;491664;240;1159;-47
2021/09/24 03:44:07;;;;;;;;;;;23.40;54.30;;;;;;491602;240;1406;-47
2021/09/24 03:46:08;;;;;;;;;;;23.40;54.20;;;;;;491491;240;2113;-47
2021/09/24 03:48:10;;;;;;;;;;;23.40;54.20;;;;;;491553;240;1235;-47
2021/09/24 03:50:11;;;;;;;;;;;23.40;54.20;;;;;;491739;240;1063;-47
2021/09/24 03:52:12;;;;;;;;;;;23.40;54.20;;;;;;491551;240;1415;-47
2021/09/24 03:54:14;;;;;;;;;;;23.40;54.10;;;;;;491589;240;1025;-47
2021/09/24 03:56:15;;;;;;;;;;;23.40;54.20;;;;;;491547;240;1185;-47
2021/09/24 03:58:16;;;;;;;;;;;23.40;54.10;;;;;;491701;240;1274;-47
2021/09/24 04:00:17;;;;;;;;;;;23.40;54.20;;;;;;491898;240;1249;-47
2021/09/24 04:02:19;;;;;;;;;;;23.40;54.20;;;;;;491622;240;1210;-47
2021/09/24 04:04:20;;;;;;;;;;;23.40;54.10;;;;;;491767;240;1095;-46
2021/09/24 04:06:21;;;;;;;;;;;23.40;54.20;;;;;;491807;240;2109;-47
2021/09/24 04:08:23;;;;;;;;;;;23.50;54.20;;;;;;491508;240;1431;-47
2021/09/24 04:10:24;;;;;;;;;;;23.40;54.10;;;;;;491903;240;1087;-47
2021/09/24 04:12:25;;;;;;;;;;;23.50;54.20;;;;;;491515;240;1421;-47
2021/09/24 04:14:27;;;;;;;;;;;23.50;54.20;;;;;;491607;240;1071;-47
2021/09/24 04:16:28;;;;;;;;;;;23.50;54.10;;;;;;491515;240;1098;-47
2021/09/24 04:18:29;;;;;;;;;;;23.50;54.20;;;;;;491552;240;1305;-45
2021/09/24 04:20:31;;;;;;;;;;;23.50;54.10;;;;;;491511;240;1113;-47
2021/09/24 04:22:32;;;;;;;;;;;23.60;54.10;;;;;;491433;240;1209;-47
2021/09/24 04:24:34;;;;;;;;;;;23.50;54.00;;;;;;491749;240;1091;-47
2021/09/24 04:26:35;;;;;;;;;;;23.50;54.00;;;;;;491497;240;2140;-47
2021/09/24 04:28:36;;;;;;;;;;;23.60;54.10;;;;;;491488;240;1117;-47
2021/09/24 04:30:37;;;;;;;;;;;23.60;54.10;;;;;;491496;240;1100;-47
2021/09/24 04:32:39;;;;;;;;;;;23.50;54.10;;;;;;491388;240;1378;-47
2021/09/24 04:34:40;;;;;;;;;;;23.60;54.10;;;;;;491432;240;1125;-47
2021/09/24 04:36:41;;;;;;;;;;;23.60;54.00;;;;;;491480;240;1245;-45
2021/09/24 04:38:43;;;;;;;;;;;23.60;54.10;;;;;;491615;240;1096;-47
2021/09/24 04:40:45;;;;;;;;;;;23.60;54.00;;;;;;491763;240;1626;-46
2021/09/24 04:42:46;;;;;;;;;;;23.60;54.00;;;;;;491432;240;1316;-47
2021/09/24 04:44:47;;;;;;;;;;;23.60;54.00;;;;;;491691;240;1099;-47
2021/09/24 04:46:49;;;;;;;;;;;23.60;54.00;;;;;;491410;240;2196;-47
2021/09/24 04:48:50;;;;;;;;;;;23.60;54.00;;;;;;491420;240;1201;-47
2021/09/24 04:50:51;;;;;;;;;;;23.60;54.00;;;;;;491380;240;1314;-47
2021/09/24 04:52:53;;;;;;;;;;;23.60;54.00;;;;;;491542;240;1294;-47
2021/09/24 04:54:54;;;;;;;;;;;23.60;53.90;;;;;;491737;240;1460;-47
2021/09/24 04:56:55;;;;;;;;;;;23.60;54.00;;;;;;491403;240;1345;-47
2021/09/24 04:58:56;;;;;;;;;;;23.60;54.00;;;;;;491687;240;1258;-47
2021/09/24 05:00:58;;;;;;;;;;;23.60;53.90;;;;;;491739;240;1121;-47
2021/09/24 05:02:59;;;;;;;;;;;23.60;53.90;;;;;;491379;240;1134;-47
2021/09/24 05:05:00;;;;;;;;;;;23.70;53.90;;;;;;491337;240;1060;-47
2021/09/24 05:07:02;;;;;;;;;;;23.60;53.90;;;;;;491320;240;2184;-47
2021/09/24 05:09:03;;;;;;;;;;;23.70;54.00;;;;;;491419;240;1076;-47
2021/09/24 05:11:04;;;;;;;;;;;23.70;53.90;;;;;;491502;240;1122;-47
2021/09/24 05:13:06;;;;;;;;;;;23.70;53.90;;;;;;491495;240;1205;-47
2021/09/24 05:15:07;;;;;;;;;;;23.70;53.90;;;;;;491619;240;1064;-47
2021/09/24 05:17:08;;;;;;;;;;;23.70;54.10;;;;;;491418;240;1190;-47
2021/09/24 05:19:10;;;;;;;;;;;23.50;54.40;;;;;;491428;240;1132;-47
2021/09/24 05:21:11;;;;;;;;;;;23.40;54.70;;;;;;491322;240;1197;-47
2021/09/24 05:23:12;;;;;;;;;;;23.20;55.10;;;;;;491352;240;1077;-47
2021/09/24 05:25:14;;;;;;;;;;;23.10;55.50;;;;;;491422;240;1104;-47
2021/09/24 05:27:15;;;;;;;;;;;23.00;55.90;;;;;;491355;240;2191;-47
2021/09/24 05:29:16;;;;;;;;;;;22.90;56.20;;;;;;491411;240;1069;-47
2021/09/24 05:31:17;;;;;;;;;;;22.80;56.50;;;;;;491474;240;1415;-47
2021/09/24 05:33:19;;;;;;;;;;;22.70;56.80;;;;;;491606;240;1058;-47
2021/09/24 05:35:20;;;;;;;;;;;22.60;57.00;;;;;;491352;240;1077;-47
2021/09/24 05:37:21;;;;;;;;;;;22.60;57.20;;;;;;491240;240;1417;-46
2021/09/24 05:39:23;;;;;;;;;;;22.50;57.20;;;;;;491575;240;1150;-46
2021/09/24 05:41:24;;;;;;;;;;;22.50;57.40;;;;;;491208;240;1173;-46
2021/09/24 05:43:26;;;;;;;;;;;22.40;57.50;;;;;;491239;240;1138;-46
2021/09/24 05:45:27;;;;;;;;;;;22.40;57.60;;;;;;491376;240;1090;-46
2021/09/24 05:47:28;;;;;;;;;;;22.30;57.70;;;;;;491259;240;2192;-46
2021/09/24 05:49:30;;;;;;;;;;;22.40;57.80;;;;;;491178;240;1119;-46
2021/09/24 05:51:31;;;;;;;;;;;22.30;57.80;;;;;;491202;240;1216;-45
2021/09/24 05:53:33;;;;;;;;;;;22.30;57.90;;;;;;491323;240;1087;-46
2021/09/24 05:55:34;;;;;;;;;;;22.20;57.90;;;;;;491300;240;1085;-45
2021/09/24 05:57:35;;;;;;;;;;;22.30;57.90;;;;;;490873;241;1851;-47
2021/09/24 05:59:37;;;;;;;;;;;22.30;58.00;;;;;;491187;240;1090;-47
2021/09/24 06:01:38;;;;;;;;;;;22.30;58.00;;;;;;491063;240;1225;-46
2021/09/24 06:03:39;;;;;;;;;;;22.20;58.00;;;;;;491175;240;1145;-46
2021/09/24 06:05:41;;;;;;;;;;;22.20;58.00;;;;;;491118;240;1046;-46
2021/09/24 06:07:43;;;;;;;;;;;22.20;58.10;;;;;;490950;240;2117;-46
2021/09/24 06:09:43;;;;;;;;;;;22.20;58.20;;;;;;490918;240;2131;-45
2021/09/24 06:11:45;;;;;;;;;;;22.20;58.10;;;;;;490693;240;1286;-46
2021/09/24 06:13:46;;;;;;;;;;;22.20;58.20;;;;;;490786;240;2298;-47
2021/09/24 06:15:48;;;;;;;;;;;22.20;58.10;;;;;;490789;240;1315;-46
2021/09/24 06:17:49;;;;;;;;;;;22.20;58.20;;;;;;490784;240;2389;-46
2021/09/24 06:19:50;;;;;;;;;;;22.10;58.30;;;;;;490715;240;1065;-46
2021/09/24 06:21:52;;;;;;;;;;;22.10;58.30;;;;;;490595;240;1203;-46
2021/09/24 06:23:53;;;;;;;;;;;22.10;58.30;;;;;;490516;240;1118;-46
2021/09/24 06:25:54;;;;;;;;;;;22.10;58.40;;;;;;490682;240;1178;-46
2021/09/24 06:27:55;;;;;;;;;;;22.10;58.40;;;;;;490789;240;2192;-46
2021/09/24 06:29:58;;;;;;;;;;;22.00;58.50;;;;;;490845;240;1092;-46
2021/09/24 06:31:58;;;;;;;;;;;22.10;58.50;;;;;;490772;240;2060;-45
2021/09/24 06:33:59;;;;;;;;;;;22.00;58.50;;;;;;490786;240;1298;-47
2021/09/24 06:36:01;;;;;;;;;;;22.00;58.50;;;;;;490758;240;1073;-46
2021/09/24 06:38:02;;;;;;;;;;;22.00;58.50;;;;;;490808;240;1073;-46
2021/09/24 06:40:03;;;;;;;;;;;22.00;58.50;;;;;;490638;240;1121;-46
2021/09/24 06:42:05;;;;;;;;;;;22.00;58.50;;;;;;490609;240;1320;-47
2021/09/24 06:44:07;;;;;;;;;;;22.00;58.60;;;;;;490728;240;1199;-47
2021/09/24 06:46:08;;;;;;;;;;;22.00;58.60;;;;;;490722;240;1289;-47
2021/09/24 06:48:09;;;;;;;;;;;22.00;58.50;;;;;;490691;240;2192;-47
2021/09/24 06:50:11;;;;;;;;;;;21.90;58.60;;;;;;490730;240;1269;-46
2021/09/24 06:52:12;;;;;;;;;;;21.90;58.70;;;;;;490631;240;1240;-46
2021/09/24 06:54:14;;;;;;;;;;;21.90;58.70;;;;;;490677;240;1218;-47
2021/09/24 06:56:15;;;;;;;;;;;21.90;58.70;;;;;;490647;240;1114;-47
2021/09/24 06:58:16;;;;;;;;;;;21.90;58.70;;;;;;490640;240;1222;-47
2021/09/24 07:00:18;;;;;;;;;;;21.90;58.60;;;;;;490750;240;1343;-47
2021/09/24 07:02:19;;;;;;;;;;;21.90;58.60;;;;;;490675;240;1159;-47
2021/09/24 07:04:20;;;;;;;;;;;21.90;58.70;;;;;;490692;240;1193;-46
2021/09/24 07:06:22;;;;;;;;;;;21.90;58.70;;;;;;490553;240;1216;-47
2021/09/24 07:08:23;;;;;;;;;;;21.90;58.70;;;;;;490512;240;2195;-47
2021/09/24 07:10:24;;;;;;;;;;;21.90;58.70;;;;;;490698;240;1244;-47
2021/09/24 07:12:26;;;;;;;;;;;21.90;58.70;;;;;;490545;240;1244;-46
2021/09/24 07:14:31;;;;;;;;;;;21.90;58.70;;;;;;490704;240;1230;-47
2021/09/24 07:16:28;;;;;;;;;;;22.00;58.70;;;;;;490464;242;2207;-47
2021/09/24 07:18:30;;;;;;;;;;;21.90;58.60;;;;;;490457;240;1087;-47
2021/09/24 07:20:31;;;;;;;;;;;22.00;58.70;;;;;;490463;241;1142;-47
2021/09/24 07:22:32;;;;;;;;;;;21.90;58.60;;;;;;490672;240;1280;-47
2021/09/24 07:24:34;;;;;;;;;;;22.00;58.70;;;;;;490624;240;1079;-47
2021/09/24 07:26:35;;;;;;;;;;;22.00;58.70;;;;;;490528;240;1101;-46
2021/09/24 07:28:36;;;;;;;;;;;21.90;58.60;;;;;;490546;240;2176;-47
2021/09/24 07:30:38;;;;;;;;;;;21.90;58.70;;;;;;490498;240;1082;-47
2021/09/24 07:32:41;;;;;;;;;;;21.90;58.70;;;;;;490401;240;1352;-47
2021/09/24 07:34:43;;;;;;;;;;;21.90;58.80;;;;;;490454;240;2365;-47
2021/09/24 07:36:42;;;;;;;;;;;21.90;58.80;;;;;;490457;240;2201;-47
2021/09/24 07:38:43;;;;;;;;;;;21.90;58.80;;;;;;490544;240;1140;-47
2021/09/24 07:40:44;;;;;;;;;;;21.90;58.90;;;;;;490434;240;1141;-46
2021/09/24 07:42:46;;;;;;;;;;;21.90;58.80;;;;;;490632;240;1293;-47
2021/09/24 07:44:47;;;;;;;;;;;21.90;58.80;;;;;;490981;240;1056;-47
2021/09/24 07:46:51;;;;;;;;;;;21.90;58.70;;;;;;491280;240;1101;-47
2021/09/24 07:48:49;;;;;;;;;;;21.90;58.70;;;;;;491218;240;2229;-47
2021/09/24 07:50:51;;;;;;;;;;;21.90;58.70;;;;;;491357;240;1048;-46
2021/09/24 07:52:52;;;;;;;;;;;21.90;58.70;;;;;;490768;240;1072;-47
2021/09/24 07:54:53;;;;;;;;;;;21.90;58.70;;;;;;490955;240;1242;-47
2021/09/24 07:56:55;;;;;;;;;;;22.00;58.60;;;;;;491360;240;1096;-47
2021/09/24 07:58:56;;;;;;;;;;;22.00;58.60;;;;;;490963;240;1246;-47
2021/09/24 08:00:57;;;;;;;;;;;22.00;58.60;;;;;;490783;240;1567;-47
2021/09/24 08:02:59;;;;;;;;;;;22.00;58.50;;;;;;490823;240;1445;-47
2021/09/24 08:05:00;;;;;;;;;;;22.00;58.60;;;;;;491282;240;1342;-47
2021/09/24 08:07:01;;;;;;;;;;;22.10;58.50;;;;;;491304;240;1173;-46
2021/09/24 08:09:03;;;;;;;;;;;22.10;58.50;;;;;;491351;240;2171;-47
2021/09/24 08:11:04;;;;;;;;;;;22.10;58.40;;;;;;491067;240;1193;-47
2021/09/24 08:13:05;;;;;;;;;;;22.10;58.50;;;;;;491467;240;1032;-46
2021/09/24 08:15:07;;;;;;;;;;;22.10;58.40;;;;;;491010;240;1162;-47
2021/09/24 08:17:09;;;;;;;;;;;22.10;58.40;;;;;;491236;240;1071;-47
2021/09/24 08:19:09;;;;;;;;;;;22.10;58.40;;;;;;490916;240;2156;-47
2021/09/24 08:21:10;;;;;;;;;;;22.10;58.40;;;;;;491333;240;1272;-47
2021/09/24 08:23:12;;;;;;;;;;;22.00;58.40;;;;;;491550;240;1062;-47
2021/09/24 08:25:13;;;;;;;;;;;22.00;58.50;;;;;;491001;240;829;-47
2021/09/24 08:27:14;;;;;;;;;;;22.00;58.40;;;;;;490805;240;1105;-47
2021/09/24 08:29:16;;;;;;;;;;;22.00;58.40;;;;;;490896;240;2192;-46
2021/09/24 08:31:17;;;;;;;;;;;22.10;58.40;;;;;;491353;240;1137;-47
2021/09/24 08:33:19;;;;;;;;;;;22.10;58.30;;;;;;491509;240;1063;-47
2021/09/24 08:35:21;;;;;;;;;;;22.10;58.40;;;;;;491059;240;930;-46
2021/09/24 08:37:22;;;;;;;;;;;22.10;58.40;;;;;;491432;240;2001;-46
2021/09/24 08:39:22;;;;;;;;;;;22.10;58.40;;;;;;491040;240;1598;-47
2021/09/24 08:41:26;;;;;;;;;;;22.10;58.40;;;;;;491007;240;1193;-47
2021/09/24 08:43:25;;;;;;;;;;;22.10;58.40;;;;;;491412;240;2020;-47
2021/09/24 08:45:27;;;;;;;;;;;22.10;58.40;;;;;;490927;240;1376;-47
2021/09/24 08:47:28;;;;;;;;;;;22.10;58.40;;;;;;491252;240;869;-47
2021/09/24 08:49:30;;;;;;;;;;;22.10;58.40;;;;;;490809;240;2191;-47
2021/09/24 08:51:31;;;;;;;;;;;22.10;58.40;;;;;;490942;240;986;-47
2021/09/24 08:53:32;;;;;;;;;;;22.10;58.40;;;;;;490897;240;1061;-46
2021/09/24 08:55:34;;;;;;;;;;;22.10;58.30;;;;;;490944;240;914;-47
2021/09/24 08:57:35;;;;;;;;;;;22.10;58.40;;;;;;491478;240;1169;-47
2021/09/24 08:59:36;;;;;;;;;;;22.00;58.40;;;;;;490983;240;1064;-47
2021/09/24 09:01:37;;;;;;;;;;;22.10;58.30;;;;;;490830;241;900;-47
2021/09/24 09:03:39;;;;;;;;;;;22.20;58.30;;;;;;490918;240;874;-47
2021/09/24 09:05:40;;;;;;;;;;;22.20;58.20;;;;;;491562;240;832;-46
2021/09/24 09:07:41;;;;;;;;;;;22.10;58.30;;;;;;491395;240;1082;-47
2021/09/24 09:09:43;;;;;;;;;;;22.20;58.30;;;;;;491428;240;2184;-47
2021/09/24 09:11:44;;;;;;;;;;;22.10;58.30;;;;;;491060;240;1913;-47
2021/09/24 09:13:45;;;;;;;;;;;22.10;58.40;;;;;;490344;240;1218;-47
2021/09/24 09:15:47;;;;;;;;;;;22.10;58.30;;;;;;490849;240;1020;-47
2021/09/24 09:17:50;;;;;;;;;;;22.10;58.30;;;;;;491208;241;1165;-47
2021/09/24 09:19:49;;;;;;;;;;;22.10;58.40;;;;;;490941;240;1365;-47
2021/09/24 09:21:52;;;;;;;;;;;22.10;58.40;;;;;;491471;240;1386;-47
2021/09/24 09:23:52;;;;;;;;;;;22.20;58.30;;;;;;491087;240;2169;-47
2021/09/24 09:25:54;;;;;;;;;;;22.10;58.30;;;;;;491418;240;1064;-47
2021/09/24 09:27:55;;;;;;;;;;;22.10;58.40;;;;;;491352;240;1016;-47
2021/09/24 09:29:56;;;;;;;;;;;22.10;58.40;;;;;;491030;240;2179;-47
2021/09/24 09:31:57;;;;;;;;;;;22.10;58.30;;;;;;491431;240;1149;-47
2021/09/24 09:33:59;;;;;;;;;;;22.10;58.40;;;;;;490809;240;1470;-47
2021/09/24 09:36:00;;;;;;;;;;;22.10;58.30;;;;;;491398;240;1411;-47
2021/09/24 09:38:01;;;;;;;;;;;22.10;58.50;;;;;;490929;240;1081;-47
2021/09/24 09:40:03;;;;;;;;;;;22.10;58.30;;;;;;491070;240;1441;-47
2021/09/24 09:42:04;;;;;;;;;;;22.10;58.30;;;;;;491408;240;1566;-47
2021/09/24 09:44:06;;;;;;;;;;;22.10;58.30;;;;;;491496;240;991;-47
2021/09/24 09:46:07;;;;;;;;;;;22.10;58.40;;;;;;491021;240;1257;-47
2021/09/24 09:48:08;;;;;;;;;;;22.10;58.30;;;;;;491498;240;1106;-47
2021/09/24 09:50:09;;;;;;;;;;;22.20;58.30;;;;;;491117;240;2180;-47
2021/09/24 09:52:11;;;;;;;;;;;22.10;58.20;;;;;;491559;240;1145;-47
2021/09/24 09:54:12;;;;;;;;;;;22.10;58.30;;;;;;491140;240;1023;-47
2021/09/24 09:56:13;;;;;;;;;;;22.10;58.40;;;;;;491599;240;1191;-47
2021/09/24 09:58:15;;;;;;;;;;;22.10;58.40;;;;;;491115;240;1095;-47
2021/09/24 10:00:16;;;;;;;;;;;22.20;58.40;;;;;;491035;240;1132;-47
2021/09/24 10:02:17;;;;;;;;;;;22.20;58.30;;;;;;490944;240;1142;-47
2021/09/24 10:04:18;;;;;;;;;;;22.10;58.20;;;;;;491491;240;877;-47
2021/09/24 10:06:20;;;;;;;;;;;22.10;58.20;;;;;;491506;240;1472;-46
2021/09/24 10:08:21;;;;;;;;;;;22.10;58.30;;;;;;491086;240;1193;-46
2021/09/24 10:10:22;;;;;;;;;;;22.10;58.40;;;;;;491639;240;2165;-47
2021/09/24 10:12:24;;;;;;;;;;;22.10;58.40;;;;;;491131;240;1006;-47
2021/09/24 10:14:25;;;;;;;;;;;22.10;58.40;;;;;;491151;240;1246;-47
2021/09/24 10:16:26;;;;;;;;;;;22.10;58.40;;;;;;490718;240;1483;-47
2021/09/24 10:18:28;;;;;;;;;;;22.10;58.30;;;;;;491306;240;883;-47
2021/09/24 10:20:29;;;;;;;;;;;22.10;58.30;;;;;;490979;240;1298;-47
2021/09/24 10:22:31;;;;;;;;;;;22.10;58.30;;;;;;490521;240;1164;-47
2021/09/24 10:24:32;;;;;;;;;;;22.20;58.40;;;;;;490597;240;1197;-47
2021/09/24 10:26:34;;;;;;;;;;;22.20;58.40;;;;;;490500;240;1205;-47
2021/09/24 10:28:35;;;;;;;;;;;22.20;58.40;;;;;;490610;240;2176;-47
2021/09/24 10:30:36;;;;;;;;;;;22.20;58.40;;;;;;490633;240;1266;-47
2021/09/24 10:32:38;;;;;;;;;;;22.20;58.40;;;;;;490581;240;1252;-47
2021/09/24 10:34:39;;;;;;;;;;;22.10;58.30;;;;;;490628;240;1175;-47
2021/09/24 10:36:40;;;;;;;;;;;22.20;58.30;;;;;;490556;240;1228;-47
2021/09/24 10:38:42;;;;;;;;;;;22.20;58.40;;;;;;490657;240;1068;-47
2021/09/24 10:40:43;;;;;;;;;;;22.10;58.40;;;;;;490624;242;1089;-47
2021/09/24 10:42:47;;;;;;;;;;;22.20;58.40;;;;;;490666;240;1069;-47
2021/09/24 10:44:46;;;;;;;;;;;22.10;58.40;;;;;;490674;240;1489;-47
2021/09/24 10:46:47;;;;;;;;;;;22.10;58.40;;;;;;490541;240;1201;-47
2021/09/24 10:48:48;;;;;;;;;;;22.20;58.40;;;;;;490577;240;2185;-47
2021/09/24 10:50:50;;;;;;;;;;;22.10;58.40;;;;;;490678;240;1188;-47
2021/09/24 10:52:51;;;;;;;;;;;22.10;58.50;;;;;;490021;240;1280;-47
2021/09/24 10:54:53;;;;;;;;;;;22.20;58.40;;;;;;490679;240;1131;-47
2021/09/24 10:56:54;;;;;;;;;;;22.10;58.40;;;;;;490579;240;1155;-47
2021/09/24 10:58:55;;;;;;;;;;;22.10;58.40;;;;;;490688;240;1147;-47
2021/09/24 11:00:57;;;;;;;;;;;22.10;58.40;;;;;;490617;240;1551;-46
2021/09/24 11:02:58;;;;;;;;;;;22.00;58.50;;;;;;490653;240;1188;-47
2021/09/24 11:04:59;;;;;;;;;;;22.00;58.50;;;;;;490682;240;1122;-46
2021/09/24 11:07:01;;;;;;;;;;;22.10;58.50;;;;;;490687;240;1166;-46
2021/09/24 11:09:02;;;;;;;;;;;22.10;58.40;;;;;;490912;240;2129;-47
2021/09/24 11:11:03;;;;;;;;;;;22.10;58.40;;;;;;490960;240;1276;-47
2021/09/24 11:13:05;;;;;;;;;;;22.00;58.50;;;;;;490253;240;1322;-47
2021/09/24 11:15:06;;;;;;;;;;;22.10;58.50;;;;;;491067;240;1108;-47
2021/09/24 11:17:07;;;;;;;;;;;22.00;58.40;;;;;;490750;240;1299;-47
2021/09/24 11:19:09;;;;;;;;;;;22.00;58.50;;;;;;490823;240;1157;-47
2021/09/24 11:21:10;;;;;;;;;;;22.00;58.50;;;;;;490845;240;1189;-46
2021/09/24 11:23:12;;;;;;;;;;;22.00;58.50;;;;;;490922;240;1234;-47
2021/09/24 11:25:13;;;;;;;;;;;22.00;58.50;;;;;;491085;240;1177;-46
2021/09/24 11:27:14;;;;;;;;;;;22.00;58.50;;;;;;490929;240;1241;-47
2021/09/24 11:29:16;;;;;;;;;;;22.00;58.50;;;;;;490899;240;2193;-47
2021/09/24 11:31:17;;;;;;;;;;;22.00;58.50;;;;;;490641;240;1391;-47
2021/09/24 11:33:18;;;;;;;;;;;22.00;58.50;;;;;;491086;240;1478;-47
2021/09/24 11:35:20;;;;;;;;;;;22.00;58.50;;;;;;491060;240;1073;-47
2021/09/24 11:37:22;;;;;;;;;;;22.00;58.60;;;;;;491540;240;1234;-47
2021/09/24 11:39:23;;;;;;;;;;;22.00;58.40;;;;;;491565;240;1140;-47
2021/09/24 11:41:24;;;;;;;;;;;22.00;58.50;;;;;;491004;240;1228;-47
2021/09/24 11:43:25;;;;;;;;;;;22.00;58.60;;;;;;491014;240;1116;-46
2021/09/24 11:45:29;;;;;;;;;;;22.00;58.40;;;;;;490829;240;1180;-47
2021/09/24 11:47:28;;;;;;;;;;;22.00;58.50;;;;;;490735;240;2218;-47
2021/09/24 11:49:30;;;;;;;;;;;22.00;58.40;;;;;;490781;240;2187;-46
2021/09/24 11:51:31;;;;;;;;;;;22.00;58.40;;;;;;490716;240;1400;-47
2021/09/24 11:53:32;;;;;;;;;;;22.00;58.40;;;;;;490650;240;1212;-47
2021/09/24 11:55:34;;;;;;;;;;;22.00;58.50;;;;;;490692;240;1102;-47
2021/09/24 11:57:35;;;;;;;;;;;22.00;58.40;;;;;;490499;240;1474;-47